sensor_id;sensor_type;location;lat;lon;timestamp;temperature;humidity
58983;DHT22;44771;49.982;8.560;2022-08-19T00:03:07;18.90;99.90
58983;DHT22;44771;49.982;8.560;2022-08-19T00:08:09;18.90;99.90
58983;DHT22;44771;49.982;8.560;2022-08-19T00:13:11;18.90;99.90
58983;DHT22;44771;49.982;8.560;2022-08-19T00:18:14;19.00;99.90
58983;DHT22;44771;49.982;8.560;2022-08-19T00:23:16;19.00;99.90
58983;DHT22;44771;49.982;8.560;2022-08-19T00:28:18;19.10;99.90
58983;DHT22;44771;49.982;8.560;2022-08-19T00:33:22;19.00;99.90
58983;DHT22;44771;49.982;8.560;2022-08-19T00:38:24;18.90;99.90
58983;DHT22;44771;49.982;8.560;2022-08-19T00:43:38;18.90;99.90
58983;DHT22;44771;49.982;8.560;2022-08-19T00:48:41;18.90;99.90
58983;DHT22;44771;49.982;8.560;2022-08-19T00:53:43;18.90;99.90
58983;DHT22;44771;49.982;8.560;2022-08-19T00:58:45;18.80;99.90
58983;DHT22;44771;49.982;8.560;2022-08-19T01:03:49;18.80;99.90
58983;DHT22;44771;49.982;8.560;2022-08-19T01:08:59;18.80;99.90
58983;DHT22;44771;49.982;8.560;2022-08-19T01:14:01;18.80;99.90
58983;DHT22;44771;49.982;8.560;2022-08-19T01:19:09;18.80;99.90
58983;DHT22;44771;49.982;8.560;2022-08-19T01:24:14;18.80;99.90
58983;DHT22;44771;49.982;8.560;2022-08-19T01:29:17;18.80;99.90
58983;DHT22;44771;49.982;8.560;2022-08-19T01:34:20;18.90;99.90
58983;DHT22;44771;49.982;8.560;2022-08-19T01:39:24;18.90;99.90
58983;DHT22;44771;49.982;8.560;2022-08-19T01:44:27;18.90;99.90
58983;DHT22;44771;49.982;8.560;2022-08-19T01:49:29;18.90;99.90
58983;DHT22;44771;49.982;8.560;2022-08-19T01:54:33;18.90;99.90
58983;DHT22;44771;49.982;8.560;2022-08-19T01:59:35;18.90;99.90
58983;DHT22;44771;49.982;8.560;2022-08-19T02:04:37;18.90;99.90
58983;DHT22;44771;49.982;8.560;2022-08-19T02:09:40;18.90;99.90
58983;DHT22;44771;49.982;8.560;2022-08-19T02:14:42;18.90;99.90
58983;DHT22;44771;49.982;8.560;2022-08-19T02:19:44;18.90;99.90
58983;DHT22;44771;49.982;8.560;2022-08-19T02:24:48;18.90;99.90
58983;DHT22;44771;49.982;8.560;2022-08-19T02:29:50;19.00;99.90
58983;DHT22;44771;49.982;8.560;2022-08-19T02:34:52;19.00;99.90
58983;DHT22;44771;49.982;8.560;2022-08-19T02:39:56;18.90;99.90
58983;DHT22;44771;49.982;8.560;2022-08-19T02:44:58;18.70;99.90
58983;DHT22;44771;49.982;8.560;2022-08-19T02:50:01;18.70;99.90
58983;DHT22;44771;49.982;8.560;2022-08-19T02:55:06;18.60;99.90
58983;DHT22;44771;49.982;8.560;2022-08-19T03:00:09;18.50;99.90
58983;DHT22;44771;49.982;8.560;2022-08-19T03:05:11;18.40;99.90
58983;DHT22;44771;49.982;8.560;2022-08-19T03:10:14;18.50;99.90
58983;DHT22;44771;49.982;8.560;2022-08-19T03:15:16;18.50;99.90
58983;DHT22;44771;49.982;8.560;2022-08-19T03:20:18;18.50;99.90
58983;DHT22;44771;49.982;8.560;2022-08-19T03:25:21;18.50;99.90
58983;DHT22;44771;49.982;8.560;2022-08-19T03:30:23;18.40;99.90
58983;DHT22;44771;49.982;8.560;2022-08-19T03:35:26;18.30;99.90
58983;DHT22;44771;49.982;8.560;2022-08-19T03:40:29;18.20;99.90
58983;DHT22;44771;49.982;8.560;2022-08-19T03:45:31;18.20;99.90
58983;DHT22;44771;49.982;8.560;2022-08-19T03:50:33;18.10;99.90
58983;DHT22;44771;49.982;8.560;2022-08-19T03:55:41;18.10;99.90
58983;DHT22;44771;49.982;8.560;2022-08-19T04:00:43;18.10;99.90
58983;DHT22;44771;49.982;8.560;2022-08-19T04:05:46;18.00;99.90
58983;DHT22;44771;49.982;8.560;2022-08-19T04:10:49;18.00;99.90
58983;DHT22;44771;49.982;8.560;2022-08-19T04:15:51;17.90;99.90
58983;DHT22;44771;49.982;8.560;2022-08-19T04:20:53;18.00;99.90
58983;DHT22;44771;49.982;8.560;2022-08-19T04:25:57;17.90;99.90
58983;DHT22;44771;49.982;8.560;2022-08-19T04:30:59;17.90;99.90
58983;DHT22;44771;49.982;8.560;2022-08-19T04:36:01;17.90;99.90
58983;DHT22;44771;49.982;8.560;2022-08-19T04:41:04;17.80;99.90
58983;DHT22;44771;49.982;8.560;2022-08-19T04:46:07;17.90;99.90
58983;DHT22;44771;49.982;8.560;2022-08-19T04:51:11;18.00;99.90
58983;DHT22;44771;49.982;8.560;2022-08-19T04:56:17;18.00;99.90
58983;DHT22;44771;49.982;8.560;2022-08-19T05:01:22;17.90;99.90
58983;DHT22;44771;49.982;8.560;2022-08-19T05:06:24;17.90;99.90
58983;DHT22;44771;49.982;8.560;2022-08-19T05:11:29;17.90;99.90
58983;DHT22;44771;49.982;8.560;2022-08-19T05:16:31;17.90;99.90
58983;DHT22;44771;49.982;8.560;2022-08-19T05:21:34;17.90;99.90
58983;DHT22;44771;49.982;8.560;2022-08-19T05:26:39;17.90;99.90
58983;DHT22;44771;49.982;8.560;2022-08-19T05:31:41;18.10;99.90
58983;DHT22;44771;49.982;8.560;2022-08-19T05:36:44;18.40;99.90
58983;DHT22;44771;49.982;8.560;2022-08-19T05:41:50;18.60;99.90
58983;DHT22;44771;49.982;8.560;2022-08-19T05:46:53;18.80;99.90
58983;DHT22;44771;49.982;8.560;2022-08-19T05:51:55;19.00;99.90
58983;DHT22;44771;49.982;8.560;2022-08-19T05:56:59;19.10;99.90
58983;DHT22;44771;49.982;8.560;2022-08-19T06:02:02;19.30;99.90
58983;DHT22;44771;49.982;8.560;2022-08-19T06:07:04;19.30;99.90
58983;DHT22;44771;49.982;8.560;2022-08-19T06:12:15;19.50;99.90
58983;DHT22;44771;49.982;8.560;2022-08-19T06:17:19;19.60;99.90
58983;DHT22;44771;49.982;8.560;2022-08-19T06:22:21;19.70;99.90
58983;DHT22;44771;49.982;8.560;2022-08-19T06:27:25;19.90;99.90
58983;DHT22;44771;49.982;8.560;2022-08-19T06:32:27;20.20;99.90
58983;DHT22;44771;49.982;8.560;2022-08-19T06:37:29;20.40;99.90
58983;DHT22;44771;49.982;8.560;2022-08-19T06:42:32;20.50;99.90
58983;DHT22;44771;49.982;8.560;2022-08-19T06:47:35;20.60;99.90
58983;DHT22;44771;49.982;8.560;2022-08-19T06:52:38;20.70;99.90
58983;DHT22;44771;49.982;8.560;2022-08-19T06:57:41;20.80;99.90
58983;DHT22;44771;49.982;8.560;2022-08-19T07:02:44;21.00;99.90
58983;DHT22;44771;49.982;8.560;2022-08-19T07:07:57;21.20;99.90
58983;DHT22;44771;49.982;8.560;2022-08-19T07:13:07;21.20;99.90
58983;DHT22;44771;49.982;8.560;2022-08-19T07:18:09;21.30;99.90
58983;DHT22;44771;49.982;8.560;2022-08-19T07:23:12;21.40;99.90
58983;DHT22;44771;49.982;8.560;2022-08-19T07:28:18;21.50;99.90
58983;DHT22;44771;49.982;8.560;2022-08-19T07:33:25;21.80;99.90
58983;DHT22;44771;49.982;8.560;2022-08-19T07:38:28;22.00;99.90
58983;DHT22;44771;49.982;8.560;2022-08-19T07:43:31;22.20;99.90
58983;DHT22;44771;49.982;8.560;2022-08-19T07:48:35;22.40;99.90
58983;DHT22;44771;49.982;8.560;2022-08-19T07:53:40;22.40;99.90
58983;DHT22;44771;49.982;8.560;2022-08-19T07:58:45;22.70;99.90
58983;DHT22;44771;49.982;8.560;2022-08-19T08:03:48;23.00;99.90
58983;DHT22;44771;49.982;8.560;2022-08-19T08:08:50;23.10;99.90
58983;DHT22;44771;49.982;8.560;2022-08-19T08:13:54;23.50;99.90
58983;DHT22;44771;49.982;8.560;2022-08-19T08:19:06;24.00;98.60
58983;DHT22;44771;49.982;8.560;2022-08-19T08:24:21;24.40;96.70
58983;DHT22;44771;49.982;8.560;2022-08-19T08:29:30;24.60;95.70
58983;DHT22;44771;49.982;8.560;2022-08-19T08:34:36;24.90;95.20
58983;DHT22;44771;49.982;8.560;2022-08-19T08:39:38;24.80;93.60
58983;DHT22;44771;49.982;8.560;2022-08-19T08:56:25;23.90;96.80
58983;DHT22;44771;49.982;8.560;2022-08-19T09:01:29;24.30;96.00
58983;DHT22;44771;49.982;8.560;2022-08-19T09:06:36;24.40;95.10
58983;DHT22;44771;49.982;8.560;2022-08-19T09:11:54;25.00;93.90
58983;DHT22;44771;49.982;8.560;2022-08-19T09:16:58;25.10;92.30
58983;DHT22;44771;49.982;8.560;2022-08-19T09:22:00;24.90;93.40
58983;DHT22;44771;49.982;8.560;2022-08-19T09:27:04;25.70;92.30
58983;DHT22;44771;49.982;8.560;2022-08-19T09:32:19;26.20;91.30
58983;DHT22;44771;49.982;8.560;2022-08-19T09:37:27;26.40;88.90
58983;DHT22;44771;49.982;8.560;2022-08-19T09:42:31;26.70;86.10
58983;DHT22;44771;49.982;8.560;2022-08-19T09:47:36;26.20;85.20
58983;DHT22;44771;49.982;8.560;2022-08-19T09:52:41;25.50;86.70
58983;DHT22;44771;49.982;8.560;2022-08-19T09:57:57;25.30;88.20
58983;DHT22;44771;49.982;8.560;2022-08-19T10:02:59;25.60;87.80
58983;DHT22;44771;49.982;8.560;2022-08-19T10:08:02;26.20;84.50
58983;DHT22;44771;49.982;8.560;2022-08-19T10:13:17;26.10;83.10
58983;DHT22;44771;49.982;8.560;2022-08-19T10:18:21;26.30;81.30
58983;DHT22;44771;49.982;8.560;2022-08-19T10:23:23;26.30;83.30
58983;DHT22;44771;49.982;8.560;2022-08-19T10:28:27;26.70;78.20
58983;DHT22;44771;49.982;8.560;2022-08-19T10:33:31;27.10;76.20
58983;DHT22;44771;49.982;8.560;2022-08-19T10:38:54;27.10;72.10
58983;DHT22;44771;49.982;8.560;2022-08-19T10:44:02;27.00;71.60
58983;DHT22;44771;49.982;8.560;2022-08-19T10:49:05;27.20;72.40
58983;DHT22;44771;49.982;8.560;2022-08-19T10:54:08;27.60;67.70
58983;DHT22;44771;49.982;8.560;2022-08-19T10:59:16;27.90;68.50
58983;DHT22;44771;49.982;8.560;2022-08-19T11:04:18;28.30;66.10
58983;DHT22;44771;49.982;8.560;2022-08-19T11:09:23;28.80;68.40
58983;DHT22;44771;49.982;8.560;2022-08-19T11:14:26;28.80;64.40
58983;DHT22;44771;49.982;8.560;2022-08-19T11:19:33;28.90;64.80
58983;DHT22;44771;49.982;8.560;2022-08-19T11:24:36;29.10;64.30
58983;DHT22;44771;49.982;8.560;2022-08-19T11:29:40;29.30;63.00
58983;DHT22;44771;49.982;8.560;2022-08-19T11:34:41;29.50;61.90
58983;DHT22;44771;49.982;8.560;2022-08-19T11:39:43;29.40;60.20
58983;DHT22;44771;49.982;8.560;2022-08-19T11:44:55;29.10;59.50
58983;DHT22;44771;49.982;8.560;2022-08-19T11:49:57;29.30;58.60
58983;DHT22;44771;49.982;8.560;2022-08-19T11:54:59;29.40;56.60
58983;DHT22;44771;49.982;8.560;2022-08-19T12:00:04;29.30;58.00
58983;DHT22;44771;49.982;8.560;2022-08-19T12:05:07;29.50;57.60
58983;DHT22;44771;49.982;8.560;2022-08-19T12:10:13;29.30;57.50
58983;DHT22;44771;49.982;8.560;2022-08-19T12:15:21;29.60;57.60
58983;DHT22;44771;49.982;8.560;2022-08-19T12:20:24;29.60;57.10
58983;DHT22;44771;49.982;8.560;2022-08-19T12:25:26;29.80;56.00
58983;DHT22;44771;49.982;8.560;2022-08-19T12:30:29;30.00;52.90
58983;DHT22;44771;49.982;8.560;2022-08-19T12:35:32;30.10;56.10
58983;DHT22;44771;49.982;8.560;2022-08-19T12:40:34;30.30;54.00
58983;DHT22;44771;49.982;8.560;2022-08-19T12:45:39;29.80;53.30
58983;DHT22;44771;49.982;8.560;2022-08-19T12:50:44;29.60;55.10
58983;DHT22;44771;49.982;8.560;2022-08-19T12:55:46;29.00;54.60
58983;DHT22;44771;49.982;8.560;2022-08-19T13:00:50;28.90;55.70
58983;DHT22;44771;49.982;8.560;2022-08-19T13:05:52;29.30;53.60
58983;DHT22;44771;49.982;8.560;2022-08-19T13:10:54;29.80;53.10
58983;DHT22;44771;49.982;8.560;2022-08-19T13:16:00;30.20;51.70
58983;DHT22;44771;49.982;8.560;2022-08-19T13:21:03;30.30;51.10
58983;DHT22;44771;49.982;8.560;2022-08-19T13:26:06;29.40;52.60
58983;DHT22;44771;49.982;8.560;2022-08-19T13:31:10;29.40;51.30
58983;DHT22;44771;49.982;8.560;2022-08-19T13:36:12;28.60;51.90
58983;DHT22;44771;49.982;8.560;2022-08-19T13:41:14;28.00;54.40
58983;DHT22;44771;49.982;8.560;2022-08-19T13:46:17;28.30;52.90
58983;DHT22;44771;49.982;8.560;2022-08-19T13:51:19;28.80;51.30
58983;DHT22;44771;49.982;8.560;2022-08-19T13:56:21;29.30;51.70
58983;DHT22;44771;49.982;8.560;2022-08-19T14:01:28;29.70;49.80
58983;DHT22;44771;49.982;8.560;2022-08-19T14:06:30;29.00;51.10
58983;DHT22;44771;49.982;8.560;2022-08-19T14:11:32;29.40;51.90
58983;DHT22;44771;49.982;8.560;2022-08-19T14:16:35;29.70;47.90
58983;DHT22;44771;49.982;8.560;2022-08-19T14:21:37;30.10;48.80
58983;DHT22;44771;49.982;8.560;2022-08-19T14:26:42;30.50;49.90
58983;DHT22;44771;49.982;8.560;2022-08-19T14:31:45;30.70;47.60
58983;DHT22;44771;49.982;8.560;2022-08-19T14:36:47;30.70;46.30
58983;DHT22;44771;49.982;8.560;2022-08-19T14:41:50;30.60;45.80
58983;DHT22;44771;49.982;8.560;2022-08-19T14:46:54;30.40;46.10
58983;DHT22;44771;49.982;8.560;2022-08-19T14:51:55;30.40;46.60
58983;DHT22;44771;49.982;8.560;2022-08-19T14:56:57;30.60;47.70
58983;DHT22;44771;49.982;8.560;2022-08-19T15:02:01;30.10;47.20
58983;DHT22;44771;49.982;8.560;2022-08-19T15:07:22;29.50;48.50
58983;DHT22;44771;49.982;8.560;2022-08-19T15:12:29;28.70;48.70
58983;DHT22;44771;49.982;8.560;2022-08-19T15:17:32;28.30;48.60
58983;DHT22;44771;49.982;8.560;2022-08-19T15:22:54;28.00;49.10
58983;DHT22;44771;49.982;8.560;2022-08-19T15:33:44;27.80;50.50
58983;DHT22;44771;49.982;8.560;2022-08-19T15:38:46;28.00;51.10
58983;DHT22;44771;49.982;8.560;2022-08-19T15:43:50;28.30;49.60
58983;DHT22;44771;49.982;8.560;2022-08-19T15:48:55;28.60;49.10
58983;DHT22;44771;49.982;8.560;2022-08-19T15:54:01;28.50;50.20
58983;DHT22;44771;49.982;8.560;2022-08-19T15:59:03;28.70;49.90
58983;DHT22;44771;49.982;8.560;2022-08-19T16:04:06;28.90;47.70
58983;DHT22;44771;49.982;8.560;2022-08-19T16:09:16;29.00;49.00
58983;DHT22;44771;49.982;8.560;2022-08-19T16:14:25;29.10;48.20
58983;DHT22;44771;49.982;8.560;2022-08-19T16:19:29;29.00;45.80
58983;DHT22;44771;49.982;8.560;2022-08-19T16:24:31;29.00;46.30
58983;DHT22;44771;49.982;8.560;2022-08-19T16:29:33;28.80;48.20
58983;DHT22;44771;49.982;8.560;2022-08-19T16:34:42;28.60;49.40
58983;DHT22;44771;49.982;8.560;2022-08-19T16:39:44;28.60;48.40
58983;DHT22;44771;49.982;8.560;2022-08-19T16:44:49;28.50;50.10
58983;DHT22;44771;49.982;8.560;2022-08-19T16:49:52;28.40;50.70
58983;DHT22;44771;49.982;8.560;2022-08-19T16:54:56;28.20;51.00
58983;DHT22;44771;49.982;8.560;2022-08-19T16:59:58;28.00;52.00
58983;DHT22;44771;49.982;8.560;2022-08-19T17:05:01;27.90;52.70
58983;DHT22;44771;49.982;8.560;2022-08-19T17:10:04;27.80;51.10
58983;DHT22;44771;49.982;8.560;2022-08-19T17:15:07;27.60;51.70
58983;DHT22;44771;49.982;8.560;2022-08-19T17:20:10;27.50;51.70
58983;DHT22;44771;49.982;8.560;2022-08-19T17:25:12;27.30;51.70
58983;DHT22;44771;49.982;8.560;2022-08-19T17:30:14;27.20;51.80
58983;DHT22;44771;49.982;8.560;2022-08-19T17:35:18;27.10;52.40
58983;DHT22;44771;49.982;8.560;2022-08-19T17:40:25;27.00;50.70
58983;DHT22;44771;49.982;8.560;2022-08-19T17:45:31;26.90;51.00
58983;DHT22;44771;49.982;8.560;2022-08-19T17:50:34;26.70;50.90
58983;DHT22;44771;49.982;8.560;2022-08-19T17:55:36;26.60;51.20
58983;DHT22;44771;49.982;8.560;2022-08-19T18:00:38;26.40;52.80
58983;DHT22;44771;49.982;8.560;2022-08-19T18:43:32;25.00;56.50
58983;DHT22;44771;49.982;8.560;2022-08-19T18:48:46;24.80;55.70
58983;DHT22;44771;49.982;8.560;2022-08-19T18:53:50;24.60;56.70
58983;DHT22;44771;49.982;8.560;2022-08-19T18:58:53;24.50;56.90
58983;DHT22;44771;49.982;8.560;2022-08-19T19:03:58;24.20;57.90
58983;DHT22;44771;49.982;8.560;2022-08-19T19:09:01;24.00;57.90
58983;DHT22;44771;49.982;8.560;2022-08-19T19:14:05;23.80;59.70
58983;DHT22;44771;49.982;8.560;2022-08-19T19:24:43;23.50;60.50
58983;DHT22;44771;49.982;8.560;2022-08-19T19:29:47;23.40;61.10
58983;DHT22;44771;49.982;8.560;2022-08-19T19:34:53;23.30;62.00
58983;DHT22;44771;49.982;8.560;2022-08-19T19:39:58;23.30;62.90
58983;DHT22;44771;49.982;8.560;2022-08-19T19:45:01;23.10;62.70
58983;DHT22;44771;49.982;8.560;2022-08-19T19:50:06;23.00;63.00
58983;DHT22;44771;49.982;8.560;2022-08-19T19:55:18;23.00;63.40
58983;DHT22;44771;49.982;8.560;2022-08-19T20:00:21;23.10;63.80
58983;DHT22;44771;49.982;8.560;2022-08-19T20:05:24;23.00;64.30
58983;DHT22;44771;49.982;8.560;2022-08-19T20:10:26;22.80;65.20
58983;DHT22;44771;49.982;8.560;2022-08-19T20:15:29;22.60;65.30
58983;DHT22;44771;49.982;8.560;2022-08-19T20:20:31;22.40;66.50
58983;DHT22;44771;49.982;8.560;2022-08-19T20:25:33;22.10;67.70
58983;DHT22;44771;49.982;8.560;2022-08-19T20:30:39;21.90;68.90
58983;DHT22;44771;49.982;8.560;2022-08-19T20:35:56;21.70;70.10
58983;DHT22;44771;49.982;8.560;2022-08-19T20:41:01;21.50;71.10
58983;DHT22;44771;49.982;8.560;2022-08-19T20:46:05;21.40;71.80
58983;DHT22;44771;49.982;8.560;2022-08-19T20:51:12;21.30;72.70
58983;DHT22;44771;49.982;8.560;2022-08-19T20:56:14;21.20;73.60
58983;DHT22;44771;49.982;8.560;2022-08-19T21:01:18;21.20;73.90
58983;DHT22;44771;49.982;8.560;2022-08-19T21:06:20;21.10;74.60
58983;DHT22;44771;49.982;8.560;2022-08-19T21:11:23;20.90;75.60
58983;DHT22;44771;49.982;8.560;2022-08-19T21:16:27;20.80;76.50
58983;DHT22;44771;49.982;8.560;2022-08-19T21:21:41;20.70;77.80
58983;DHT22;44771;49.982;8.560;2022-08-19T21:26:43;20.60;78.90
58983;DHT22;44771;49.982;8.560;2022-08-19T21:31:56;20.50;80.10
58983;DHT22;44771;49.982;8.560;2022-08-19T21:36:57;20.40;82.80
58983;DHT22;44771;49.982;8.560;2022-08-19T21:41:59;20.30;83.80
58983;DHT22;44771;49.982;8.560;2022-08-19T21:47:03;20.40;84.50
58983;DHT22;44771;49.982;8.560;2022-08-19T21:52:05;20.40;86.30
58983;DHT22;44771;49.982;8.560;2022-08-19T21:57:07;20.30;88.40
58983;DHT22;44771;49.982;8.560;2022-08-19T22:02:13;20.20;89.40
58983;DHT22;44771;49.982;8.560;2022-08-19T22:07:22;19.90;90.50
58983;DHT22;44771;49.982;8.560;2022-08-19T22:12:27;19.90;91.70
58983;DHT22;44771;49.982;8.560;2022-08-19T22:17:31;20.00;92.80
58983;DHT22;44771;49.982;8.560;2022-08-19T22:22:33;20.20;93.00
58983;DHT22;44771;49.982;8.560;2022-08-19T22:27:36;20.30;94.30
58983;DHT22;44771;49.982;8.560;2022-08-19T22:32:43;20.30;95.00
58983;DHT22;44771;49.982;8.560;2022-08-19T22:37:45;20.40;95.70
58983;DHT22;44771;49.982;8.560;2022-08-19T22:42:47;20.50;95.70
58983;DHT22;44771;49.982;8.560;2022-08-19T22:47:50;20.50;95.30
58983;DHT22;44771;49.982;8.560;2022-08-19T22:52:55;20.50;96.00
58983;DHT22;44771;49.982;8.560;2022-08-19T22:57:57;20.50;95.60
58983;DHT22;44771;49.982;8.560;2022-08-19T23:03:00;20.50;95.70
58983;DHT22;44771;49.982;8.560;2022-08-19T23:08:02;20.60;95.90
58983;DHT22;44771;49.982;8.560;2022-08-19T23:13:04;20.70;96.10
58983;DHT22;44771;49.982;8.560;2022-08-19T23:18:08;20.60;96.40
58983;DHT22;44771;49.982;8.560;2022-08-19T23:23:13;20.60;96.90
58983;DHT22;44771;49.982;8.560;2022-08-19T23:28:15;20.50;97.50
58983;DHT22;44771;49.982;8.560;2022-08-19T23:33:20;20.50;97.80
58983;DHT22;44771;49.982;8.560;2022-08-19T23:38:24;20.40;98.20
58983;DHT22;44771;49.982;8.560;2022-08-19T23:43:27;20.30;98.80
58983;DHT22;44771;49.982;8.560;2022-08-19T23:48:32;20.20;99.30
58983;DHT22;44771;49.982;8.560;2022-08-19T23:53:35;20.10;99.90
58983;DHT22;44771;49.982;8.560;2022-08-19T23:58:37;20.00;99.90
